createdAt,value
2018-09-22T00:00:21.624Z,27.31
2018-09-22T00:01:21.651Z,27.28
2018-09-22T00:02:21.677Z,27.32
2018-09-22T00:03:21.715Z,27.31
2018-09-22T00:04:21.758Z,27.33
2018-09-22T00:05:21.786Z,27.32
2018-09-22T00:06:21.821Z,27.32
2018-09-22T00:07:21.865Z,27.29
2018-09-22T00:08:21.895Z,27.33
2018-09-22T00:09:21.931Z,27.33
2018-09-22T00:10:21.971Z,27.31
2018-09-22T00:11:22.008Z,27.31
2018-09-22T00:12:22.041Z,27.23
2018-09-22T00:13:22.077Z,27.19
2018-09-22T00:14:22.112Z,27.32
2018-09-22T00:15:22.150Z,27.31
2018-09-22T00:16:22.188Z,27.26
2018-09-22T00:17:22.225Z,27.33
2018-09-22T00:18:22.256Z,27.24
2018-09-22T00:19:22.295Z,27.26
2018-09-22T00:20:22.332Z,27.24
2018-09-22T00:21:22.372Z,27.26
2018-09-22T00:22:22.404Z,27.26
2018-09-22T00:23:22.444Z,27.24
2018-09-22T00:24:22.480Z,27.20
2018-09-22T00:25:22.515Z,27.29
2018-09-22T00:26:22.552Z,27.17
2018-09-22T00:27:22.630Z,27.20
2018-09-22T00:28:22.624Z,27.20
2018-09-22T00:29:22.659Z,27.24
2018-09-22T00:30:22.700Z,27.19
2018-09-22T00:31:22.735Z,27.14
2018-09-22T00:32:22.769Z,27.20
2018-09-22T00:33:22.807Z,27.17
2018-09-22T00:34:22.841Z,27.19
2018-09-22T00:35:22.877Z,27.17
2018-09-22T00:36:22.915Z,27.13
2018-09-22T00:37:22.950Z,27.13
2018-09-22T00:38:22.987Z,27.16
2018-09-22T00:39:23.024Z,27.23
2018-09-22T00:40:23.061Z,27.21
2018-09-22T00:41:23.094Z,27.23
2018-09-22T00:42:23.132Z,27.13
2018-09-22T00:43:23.168Z,27.09
2018-09-22T00:44:23.206Z,27.13
2018-09-22T00:45:23.241Z,27.09
2018-09-22T00:46:23.281Z,27.13
2018-09-22T00:47:23.318Z,27.19
2018-09-22T00:48:23.349Z,27.16
2018-09-22T00:49:23.387Z,27.14
2018-09-22T00:50:23.423Z,27.17
2018-09-22T00:51:23.461Z,27.19
2018-09-22T00:52:23.495Z,27.13
2018-09-22T00:53:23.537Z,27.16
2018-09-22T00:54:23.568Z,27.16
2018-09-22T00:55:23.602Z,27.11
2018-09-22T00:56:23.645Z,27.16
2018-09-22T00:57:23.677Z,27.09
2018-09-22T00:58:23.712Z,27.16
2018-09-22T00:59:23.751Z,27.16
2018-09-22T01:00:23.787Z,27.20
2018-09-22T01:01:23.822Z,27.14
2018-09-22T01:02:23.859Z,27.06
2018-09-22T01:03:23.897Z,27.20
2018-09-22T01:04:23.933Z,27.13
2018-09-22T01:05:23.968Z,27.10
2018-09-22T01:06:24.004Z,27.14
2018-09-22T01:07:24.042Z,27.17
2018-09-22T01:08:24.077Z,27.23
2018-09-22T01:09:24.112Z,27.19
2018-09-22T01:10:24.149Z,27.09
2018-09-22T01:11:24.188Z,27.19
2018-09-22T01:12:24.226Z,27.14
2018-09-22T01:13:24.268Z,27.13
2018-09-22T01:14:24.293Z,27.16
2018-09-22T01:15:24.349Z,27.19
2018-09-22T01:16:24.368Z,27.13
2018-09-22T01:17:24.402Z,27.11
2018-09-22T01:18:24.439Z,27.11
2018-09-22T01:19:24.477Z,27.06
2018-09-22T01:20:24.512Z,27.06
2018-09-22T01:21:24.550Z,27.17
2018-09-22T01:22:24.588Z,27.05
2018-09-22T01:23:24.622Z,27.13
2018-09-22T01:24:24.657Z,27.10
2018-09-22T01:25:24.696Z,27.14
2018-09-22T01:26:24.730Z,27.06
2018-09-22T01:27:24.765Z,27.06
2018-09-22T01:28:24.805Z,27.05
2018-09-22T01:29:24.840Z,27.13
2018-09-22T01:30:24.890Z,27.09
2018-09-22T01:31:24.914Z,27.09
2018-09-22T01:32:24.947Z,27.05
2018-09-22T01:33:24.983Z,27.06
2018-09-22T01:34:25.026Z,27.05
2018-09-22T01:35:25.056Z,27.17
2018-09-22T01:36:25.092Z,27.10
2018-09-22T01:37:25.129Z,27.06
2018-09-22T01:38:25.168Z,27.06
2018-09-22T01:39:25.213Z,27.06
2018-09-22T01:40:25.237Z,27.05
2018-09-22T01:41:25.275Z,27.06
2018-09-22T01:42:25.311Z,27.02
2018-09-22T01:43:25.350Z,27.05
2018-09-22T01:44:25.383Z,27.06
2018-09-22T01:45:25.418Z,27.02
2018-09-22T01:46:25.456Z,27.06
2018-09-22T01:47:25.492Z,27.10
2018-09-22T01:48:25.527Z,27.05
2018-09-22T01:49:25.566Z,27.02
2018-09-22T01:50:25.601Z,27.05
2018-09-22T01:51:25.642Z,27.11
2018-09-22T01:52:25.684Z,27.05
2018-09-22T01:53:25.710Z,27.06
2018-09-22T01:54:25.746Z,27.10
2018-09-22T01:55:25.784Z,27.01
2018-09-22T01:56:25.822Z,27.02
2018-09-22T01:57:25.856Z,27.09
2018-09-22T01:58:25.890Z,27.06
2018-09-22T01:59:25.931Z,27.05
2018-09-22T02:00:25.963Z,27.02
2018-09-22T02:01:26.003Z,27.05
2018-09-22T02:02:26.035Z,27.09
2018-09-22T02:03:26.074Z,27.05
2018-09-22T02:04:26.111Z,27.02
2018-09-22T02:05:26.147Z,27.05
2018-09-22T02:06:26.182Z,27.09
2018-09-22T02:07:26.222Z,27.04
2018-09-22T02:08:26.254Z,27.01
2018-09-22T02:09:26.292Z,27.06
2018-09-22T02:10:26.382Z,27.05
2018-09-22T02:11:26.370Z,26.98
2018-09-22T02:12:26.398Z,27.01
2018-09-22T02:13:26.435Z,27.10
2018-09-22T02:14:26.473Z,27.06
2018-09-22T02:15:26.508Z,27.09
2018-09-22T02:16:26.542Z,27.04
2018-09-22T02:17:26.583Z,27.01
2018-09-22T02:18:26.619Z,27.05
2018-09-22T02:19:26.651Z,27.04
2018-09-22T02:20:26.690Z,27.02
2018-09-22T02:21:26.726Z,27.02
2018-09-22T02:22:26.763Z,26.98
2018-09-22T02:23:26.797Z,27.02
2018-09-22T02:24:26.834Z,26.95
2018-09-22T02:25:26.869Z,27.01
2018-09-22T02:26:26.906Z,26.98
2018-09-22T02:27:26.941Z,26.99
2018-09-22T02:28:26.978Z,27.01
2018-09-22T02:29:27.019Z,26.98
2018-09-22T02:30:27.049Z,26.98
2018-09-22T02:31:27.090Z,27.02
2018-09-22T02:32:27.122Z,27.01
2018-09-22T02:33:27.165Z,26.94
2018-09-22T02:34:27.200Z,26.98
2018-09-22T02:35:27.233Z,27.04
2018-09-22T02:36:27.274Z,27.01
2018-09-22T02:37:27.305Z,27.01
2018-09-22T02:38:27.338Z,26.95
2018-09-22T02:39:27.401Z,27.01
2018-09-22T02:40:27.412Z,27.04
2018-09-22T02:41:27.454Z,26.96
2018-09-22T02:42:27.483Z,26.96
2018-09-22T02:43:27.525Z,27.04
2018-09-22T02:44:27.556Z,27.05
2018-09-22T02:45:27.595Z,26.99
2018-09-22T02:46:27.633Z,27.02
2018-09-22T02:47:27.670Z,26.96
2018-09-22T02:48:27.705Z,26.98
2018-09-22T02:49:27.743Z,26.99
2018-09-22T02:50:27.776Z,26.92
2018-09-22T02:51:27.818Z,26.91
2018-09-22T02:52:27.847Z,27.01
2018-09-22T02:53:27.885Z,26.95
2018-09-22T02:54:27.918Z,26.96
2018-09-22T02:55:27.956Z,26.95
2018-09-22T02:56:27.991Z,26.92
2018-09-22T02:57:28.030Z,26.98
2018-09-22T02:58:28.064Z,26.94
2018-09-22T02:59:28.099Z,26.94
2018-09-22T03:00:28.136Z,26.99
2018-09-22T03:01:28.172Z,27.01
2018-09-22T03:02:28.208Z,26.96
2018-09-22T03:03:28.243Z,26.95
2018-09-22T03:04:28.279Z,26.98
2018-09-22T03:05:28.320Z,26.92
2018-09-22T03:06:28.355Z,26.96
2018-09-22T03:07:28.389Z,26.99
2018-09-22T03:08:28.427Z,26.96
2018-09-22T03:09:28.465Z,26.98
2018-09-22T03:10:28.499Z,26.86
2018-09-22T03:11:28.539Z,26.98
2018-09-22T03:12:28.569Z,26.94
2018-09-22T03:13:28.617Z,26.95
2018-09-22T03:14:28.644Z,26.99
2018-09-22T03:15:28.824Z,26.94
2018-09-22T03:16:28.717Z,26.99
2018-09-22T03:17:28.751Z,26.83
2018-09-22T03:18:28.786Z,26.86
2018-09-22T03:19:28.825Z,26.84
2018-09-22T03:20:28.861Z,26.94
2018-09-22T03:21:28.898Z,26.94
2018-09-22T03:22:28.932Z,26.86
2018-09-22T03:23:28.968Z,26.92
2018-09-22T03:24:29.004Z,26.89
2018-09-22T03:25:29.040Z,26.89
2018-09-22T03:26:29.074Z,26.87
2018-09-22T03:27:29.112Z,26.89
2018-09-22T03:28:29.149Z,26.94
2018-09-22T03:29:29.185Z,26.87
2018-09-22T03:30:29.246Z,26.87
2018-09-22T03:31:29.262Z,26.81
2018-09-22T03:32:29.296Z,26.87
2018-09-22T03:33:29.331Z,26.81
2018-09-22T03:34:29.366Z,26.87
2018-09-22T03:35:29.404Z,26.86
2018-09-22T03:36:29.440Z,26.84
2018-09-22T03:37:29.475Z,26.83
2018-09-22T03:38:29.520Z,26.84
2018-09-22T03:39:29.551Z,26.81
2018-09-22T03:40:29.585Z,26.81
2018-09-22T03:41:29.620Z,26.86
2018-09-22T03:42:29.655Z,26.86
2018-09-22T03:43:29.691Z,26.83
2018-09-22T03:44:29.728Z,26.87
2018-09-22T03:45:29.766Z,26.79
2018-09-22T03:46:29.798Z,26.86
2018-09-22T03:47:29.833Z,26.83
2018-09-22T03:48:29.880Z,26.87
2018-09-22T03:49:29.913Z,26.83
2018-09-22T03:50:29.943Z,26.81
2018-09-22T03:51:29.984Z,26.81
2018-09-22T03:52:30.016Z,26.80
2018-09-22T03:53:30.055Z,26.81
2018-09-22T03:54:30.089Z,26.83
2018-09-22T03:55:30.125Z,26.87
2018-09-22T03:56:30.166Z,26.87
2018-09-22T03:57:30.195Z,26.79
2018-09-22T03:58:30.233Z,26.86
2018-09-22T03:59:30.279Z,26.86
2018-09-22T04:00:30.305Z,26.81
2018-09-22T04:01:30.340Z,26.79
2018-09-22T04:02:30.376Z,26.87
2018-09-22T04:03:30.412Z,26.86
2018-09-22T04:04:30.449Z,26.84
2018-09-22T04:05:30.484Z,26.86
2018-09-22T04:06:30.525Z,26.86
2018-09-22T04:07:30.556Z,26.79
2018-09-22T04:08:30.592Z,26.87
2018-09-22T04:09:30.628Z,26.92
2018-09-22T04:10:30.666Z,26.86
2018-09-22T04:11:30.703Z,26.83
2018-09-22T04:12:30.739Z,26.81
2018-09-22T04:13:30.780Z,26.89
2018-09-22T04:14:30.812Z,26.91
2018-09-22T04:15:30.849Z,26.83
2018-09-22T04:16:30.884Z,26.79
2018-09-22T04:17:30.918Z,26.84
2018-09-22T04:18:30.953Z,26.83
2018-09-22T04:19:30.991Z,26.80
2018-09-22T04:20:31.028Z,26.89
2018-09-22T04:21:31.063Z,26.83
2018-09-22T04:22:31.099Z,26.83
2018-09-22T04:23:31.134Z,26.81
2018-09-22T04:24:31.170Z,26.83
2018-09-22T04:25:31.207Z,26.81
2018-09-22T04:26:31.241Z,26.80
2018-09-22T04:27:31.279Z,26.80
2018-09-22T04:28:31.318Z,26.81
2018-09-22T04:29:31.353Z,26.80
2018-09-22T04:30:31.390Z,26.89
2018-09-22T04:31:31.428Z,26.79
2018-09-22T04:32:31.462Z,26.76
2018-09-22T04:33:31.536Z,26.81
2018-09-22T04:34:31.532Z,26.83
2018-09-22T04:35:31.567Z,26.79
2018-09-22T04:36:31.604Z,26.86
2018-09-22T04:37:31.641Z,26.83
2018-09-22T04:38:31.676Z,26.79
2018-09-22T04:39:31.712Z,26.84
2018-09-22T04:40:31.749Z,26.84
2018-09-22T04:41:31.786Z,26.80
2018-09-22T04:42:31.820Z,26.83
2018-09-22T04:43:31.856Z,26.79
2018-09-22T04:44:31.895Z,26.74
2018-09-22T04:45:31.931Z,26.81
2018-09-22T04:46:31.967Z,26.84
2018-09-22T04:47:31.999Z,26.79
2018-09-22T04:48:32.036Z,26.83
2018-09-22T04:49:32.075Z,26.81
2018-09-22T04:50:32.108Z,26.79
2018-09-22T04:51:32.155Z,26.77
2018-09-22T04:52:32.182Z,26.79
2018-09-22T04:53:32.218Z,26.79
2018-09-22T04:54:32.253Z,26.81
2018-09-22T04:55:32.290Z,26.83
2018-09-22T04:56:32.329Z,26.76
2018-09-22T04:57:32.364Z,26.77
2018-09-22T04:58:32.398Z,26.74
2018-09-22T04:59:32.435Z,26.87
2018-09-22T05:00:32.474Z,26.77
2018-09-22T05:01:32.510Z,26.76
2018-09-22T05:02:32.542Z,26.77
2018-09-22T05:03:32.580Z,26.77
2018-09-22T05:04:32.616Z,26.83
2018-09-22T05:05:32.652Z,26.80
2018-09-22T05:06:32.685Z,26.77
2018-09-22T05:07:32.723Z,26.77
2018-09-22T05:08:32.759Z,26.84
2018-09-22T05:09:32.796Z,26.74
2018-09-22T05:10:32.832Z,26.79
2018-09-22T05:11:32.873Z,26.83
2018-09-22T05:12:32.906Z,26.79
2018-09-22T05:13:32.939Z,26.81
2018-09-22T05:14:32.979Z,26.84
2018-09-22T05:15:33.016Z,26.87
2018-09-22T05:16:33.048Z,26.76
2018-09-22T05:17:33.084Z,26.76
2018-09-22T05:18:33.121Z,26.80
2018-09-22T05:19:33.158Z,26.83
2018-09-22T05:20:33.195Z,26.77
2018-09-22T05:21:33.230Z,26.83
2018-09-22T05:22:33.265Z,26.76
2018-09-22T05:23:33.302Z,26.80
2018-09-22T05:24:33.353Z,26.81
2018-09-22T05:25:33.376Z,26.79
2018-09-22T05:26:33.408Z,26.77
2018-09-22T05:27:33.446Z,26.80
2018-09-22T05:28:33.486Z,26.73
2018-09-22T05:29:33.522Z,26.83
2018-09-22T05:30:33.552Z,26.84
2018-09-22T05:31:33.595Z,26.79
2018-09-22T05:32:33.628Z,26.83
2018-09-22T05:33:33.760Z,26.83
2018-09-22T05:34:33.700Z,26.77
2018-09-22T05:35:33.734Z,26.83
2018-09-22T05:36:33.772Z,26.77
2018-09-22T05:37:33.809Z,26.83
2018-09-22T05:38:33.847Z,26.72
2018-09-22T05:39:33.878Z,26.83
2018-09-22T05:40:33.914Z,26.76
2018-09-22T05:41:33.968Z,26.72
2018-09-22T05:42:33.989Z,26.73
2018-09-22T05:43:34.021Z,26.72
2018-09-22T05:44:34.059Z,26.84
2018-09-22T05:45:34.096Z,26.77
2018-09-22T05:46:34.129Z,26.81
2018-09-22T05:47:34.168Z,26.77
2018-09-22T05:48:34.204Z,26.83
2018-09-22T05:49:34.240Z,26.79
2018-09-22T05:50:34.274Z,26.84
2018-09-22T05:51:34.315Z,26.79
2018-09-22T05:52:34.349Z,26.77
2018-09-22T05:53:34.382Z,26.77
2018-09-22T05:54:34.419Z,26.76
2018-09-22T05:55:34.463Z,26.81
2018-09-22T05:56:34.493Z,26.76
2018-09-22T05:57:34.527Z,26.69
2018-09-22T05:58:34.564Z,26.84
2018-09-22T05:59:34.600Z,26.81
2018-09-22T06:00:34.638Z,26.73
2018-09-22T06:01:34.672Z,26.79
2018-09-22T06:02:34.708Z,26.74
2018-09-22T06:03:34.829Z,26.69
2018-09-22T06:04:34.779Z,26.84
2018-09-22T06:05:34.815Z,26.80
2018-09-22T06:06:34.850Z,26.84
2018-09-22T06:07:34.887Z,26.79
2018-09-22T06:08:34.925Z,26.76
2018-09-22T06:09:35.016Z,26.67
2018-09-22T06:10:34.997Z,26.76
2018-09-22T06:11:35.037Z,26.80
2018-09-22T06:12:35.068Z,26.73
2018-09-22T06:13:35.103Z,26.76
2018-09-22T06:14:35.142Z,26.74
2018-09-22T06:15:35.178Z,26.72
2018-09-22T06:16:35.214Z,26.73
2018-09-22T06:17:35.251Z,26.77
2018-09-22T06:18:35.287Z,26.73
2018-09-22T06:19:35.323Z,26.77
2018-09-22T06:20:35.361Z,26.76
2018-09-22T06:21:35.394Z,26.73
2018-09-22T06:22:35.421Z,26.73
2018-09-22T06:23:35.529Z,26.80
2018-09-22T06:24:35.513Z,26.77
2018-09-22T06:25:35.529Z,26.68
2018-09-22T06:26:35.565Z,26.74
2018-09-22T06:27:35.604Z,26.72
2018-09-22T06:28:35.654Z,26.76
2018-09-22T06:29:35.677Z,26.74
2018-09-22T06:30:35.710Z,26.73
2018-09-22T06:31:35.750Z,26.73
2018-09-22T06:32:35.783Z,26.77
2018-09-22T06:33:35.820Z,26.74
2018-09-22T06:34:35.853Z,26.79
2018-09-22T06:35:35.889Z,26.73
2018-09-22T06:36:35.930Z,26.73
2018-09-22T06:37:35.963Z,26.83
2018-09-22T06:38:35.998Z,26.74
2018-09-22T06:39:36.034Z,26.76
2018-09-22T06:40:36.071Z,26.72
2018-09-22T06:41:36.108Z,26.73
2018-09-22T06:42:36.143Z,26.68
2018-09-22T06:43:36.182Z,26.79
2018-09-22T06:44:36.214Z,26.68
2018-09-22T06:45:36.251Z,26.72
2018-09-22T06:46:36.285Z,26.69
2018-09-22T06:47:36.322Z,26.76
2018-09-22T06:48:36.358Z,26.80
2018-09-22T06:49:36.396Z,26.77
2018-09-22T06:50:36.430Z,26.72
2018-09-22T06:51:36.471Z,26.73
2018-09-22T06:52:36.504Z,26.73
2018-09-22T06:53:36.542Z,26.76
2018-09-22T06:54:36.575Z,26.79
2018-09-22T06:55:36.611Z,26.67
2018-09-22T06:56:36.646Z,26.73
2018-09-22T06:57:36.683Z,26.73
2018-09-22T06:58:36.721Z,26.73
2018-09-22T06:59:36.757Z,26.74
2018-09-22T07:00:36.792Z,26.74
2018-09-22T07:01:36.829Z,26.74
2018-09-22T07:02:36.863Z,26.73
2018-09-22T07:03:36.902Z,26.73
2018-09-22T07:04:36.939Z,26.74
2018-09-22T07:05:36.974Z,26.74
2018-09-22T07:06:37.007Z,26.76
2018-09-22T07:07:37.045Z,26.67
2018-09-22T07:08:37.079Z,26.72
2018-09-22T07:09:37.115Z,26.74
2018-09-22T07:10:37.150Z,26.73
2018-09-22T07:11:37.190Z,26.69
2018-09-22T07:12:37.227Z,26.68
2018-09-22T07:13:37.272Z,26.72
2018-09-22T07:14:37.295Z,26.68
2018-09-22T07:15:37.334Z,26.76
2018-09-22T07:16:37.371Z,26.74
2018-09-22T07:17:37.406Z,26.73
2018-09-22T07:18:37.441Z,26.68
2018-09-22T07:19:37.503Z,26.73
2018-09-22T07:20:37.511Z,26.77
2018-09-22T07:21:37.549Z,26.74
2018-09-22T07:22:37.584Z,26.69
2018-09-22T07:23:37.620Z,26.72
2018-09-22T07:24:37.656Z,26.74
2018-09-22T07:25:37.693Z,26.73
2018-09-22T07:26:37.728Z,26.69
2018-09-22T07:27:37.764Z,26.67
2018-09-22T07:28:37.801Z,26.73
2018-09-22T07:29:37.835Z,26.61
2018-09-22T07:30:37.902Z,26.69
2018-09-22T07:31:37.910Z,26.67
2018-09-22T07:32:37.944Z,26.61
2018-09-22T07:33:37.981Z,26.65
2018-09-22T07:34:38.014Z,26.67
2018-09-22T07:35:38.053Z,26.67
2018-09-22T07:36:38.091Z,26.67
2018-09-22T07:37:38.127Z,26.67
2018-09-22T07:38:38.164Z,26.67
2018-09-22T07:39:38.196Z,26.68
2018-09-22T07:40:38.236Z,26.69
2018-09-22T07:41:38.269Z,26.67
2018-09-22T07:42:38.305Z,26.67
2018-09-22T07:43:38.344Z,26.72
2018-09-22T07:44:38.379Z,26.68
2018-09-22T07:45:38.468Z,26.67
2018-09-22T07:46:38.448Z,26.73
2018-09-22T07:47:38.483Z,26.67
2018-09-22T07:48:38.520Z,26.65
2018-09-22T07:49:38.557Z,26.69
2018-09-22T07:50:38.592Z,26.62
2018-09-22T07:51:38.632Z,26.65
2018-09-22T07:52:38.663Z,26.65
2018-09-22T07:53:38.701Z,26.65
2018-09-22T07:54:38.736Z,26.61
2018-09-22T07:55:38.772Z,26.65
2018-09-22T07:56:38.809Z,26.67
2018-09-22T07:57:38.844Z,26.62
2018-09-22T07:58:38.891Z,26.72
2018-09-22T07:59:38.917Z,26.73
2018-09-22T08:00:38.951Z,26.67
2018-09-22T08:01:38.991Z,26.64
2018-09-22T08:02:39.022Z,26.62
2018-09-22T08:03:39.061Z,26.74
2018-09-22T08:04:39.099Z,26.64
2018-09-22T08:05:39.131Z,26.69
2018-09-22T08:06:39.170Z,26.62
2018-09-22T08:07:39.207Z,26.68
2018-09-22T08:08:39.244Z,26.62
2018-09-22T08:09:39.275Z,26.65
2018-09-22T08:10:39.317Z,26.68
2018-09-22T08:11:39.374Z,26.55
2018-09-22T08:12:39.383Z,26.73
2018-09-22T08:13:39.422Z,26.67
2018-09-22T08:14:39.460Z,26.65
2018-09-22T08:15:39.491Z,26.65
2018-09-22T08:16:39.528Z,26.67
2018-09-22T08:17:39.564Z,26.62
2018-09-22T08:18:39.602Z,26.61
2018-09-22T08:19:39.635Z,26.61
2018-09-22T08:20:39.680Z,26.64
2018-09-22T08:21:39.713Z,26.68
2018-09-22T08:22:39.743Z,26.55
2018-09-22T08:23:39.778Z,26.61
2018-09-22T08:24:39.820Z,26.62
2018-09-22T08:25:39.857Z,26.65
2018-09-22T08:26:39.891Z,26.64
2018-09-22T08:27:39.927Z,26.54
2018-09-22T08:28:39.963Z,26.62
2018-09-22T08:29:39.997Z,26.62
2018-09-22T08:30:40.029Z,26.67
2018-09-22T08:31:40.070Z,26.67
2018-09-22T08:32:40.106Z,26.58
2018-09-22T08:33:40.138Z,26.55
2018-09-22T08:34:40.174Z,26.65
2018-09-22T08:35:40.212Z,26.54
2018-09-22T08:36:40.335Z,26.64
2018-09-22T08:37:40.284Z,26.52
2018-09-22T08:38:40.319Z,26.55
2018-09-22T08:39:40.355Z,26.57
2018-09-22T08:40:40.389Z,26.62
2018-09-22T08:41:40.426Z,26.52
2018-09-22T08:44:11.298Z,26.67
2018-09-22T08:45:11.107Z,26.59
2018-09-22T08:48:03.922Z,26.50
2018-09-22T08:49:55.069Z,26.64
2018-09-22T08:52:46.904Z,26.54
2018-09-22T08:53:46.941Z,26.64
2018-09-22T08:55:39.150Z,26.54
2018-09-22T08:56:38.886Z,26.62
2018-09-22T08:58:30.809Z,26.61
2018-09-22T08:59:30.840Z,26.61
2018-09-22T09:01:22.802Z,26.62
2018-09-22T09:02:22.780Z,26.55
2018-09-22T09:04:14.694Z,26.65
2018-09-22T09:05:14.725Z,26.52
2018-09-22T09:08:06.673Z,26.57
2018-09-22T09:10:58.625Z,26.58
2018-09-22T09:12:50.582Z,26.57
2018-09-22T09:13:51.293Z,26.62
2018-09-22T09:15:42.483Z,26.65
2018-09-22T09:16:42.512Z,26.59
2018-09-22T09:18:34.474Z,26.61
2018-09-22T09:19:34.455Z,26.61
2018-09-22T09:21:26.374Z,26.59
2018-09-22T09:22:26.403Z,26.58
2018-09-22T09:24:19.045Z,26.59
2018-09-22T09:25:18.352Z,26.61
2018-09-22T09:27:10.992Z,26.61
2018-09-22T09:28:10.291Z,26.61
2018-09-22T09:30:02.256Z,26.62
2018-09-22T09:32:54.147Z,26.59
2018-09-22T09:33:54.182Z,26.61
2018-09-22T09:36:46.121Z,26.52
2018-09-22T09:38:39.515Z,26.52
2018-09-22T09:39:39.546Z,26.55
2018-09-22T09:40:39.581Z,26.49
2018-09-22T09:41:39.621Z,26.59
2018-09-22T09:42:39.654Z,26.61
2018-09-22T09:43:39.759Z,26.57
2018-09-22T09:44:39.730Z,26.55
2018-09-22T09:45:39.761Z,26.55
2018-09-22T09:46:39.797Z,26.58
2018-09-22T09:47:39.836Z,26.55
2018-09-22T09:48:39.868Z,26.57
2018-09-22T09:49:39.904Z,26.58
2018-09-22T09:50:39.943Z,26.55
2018-09-22T09:51:39.978Z,26.54
2018-09-22T09:52:40.013Z,26.55
2018-09-22T09:53:40.049Z,26.57
2018-09-22T09:54:40.087Z,26.54
2018-09-22T09:55:40.126Z,26.54
2018-09-22T09:56:40.157Z,26.54
2018-09-22T09:57:40.193Z,26.59
2018-09-22T09:58:40.233Z,26.54
2018-09-22T09:59:40.265Z,26.54
2018-09-22T10:00:40.301Z,26.52
2018-09-22T10:01:40.336Z,26.54
2018-09-22T10:02:40.373Z,26.61
2018-09-22T10:03:40.410Z,26.52
2018-09-22T10:04:40.442Z,26.52
2018-09-22T10:05:40.481Z,26.54
2018-09-22T10:06:40.517Z,26.57
2018-09-22T10:07:40.550Z,26.55
2018-09-22T10:08:40.588Z,26.58
2018-09-22T10:09:40.624Z,26.55
2018-09-22T10:10:40.669Z,26.54
2018-09-22T10:11:40.702Z,26.59
2018-09-22T10:12:40.730Z,26.57
2018-09-22T10:13:40.767Z,26.52
2018-09-22T10:14:40.803Z,26.58
2018-09-22T10:15:40.839Z,26.55
2018-09-22T10:16:40.875Z,26.50
2018-09-22T10:17:40.910Z,26.54
2018-09-22T10:18:40.951Z,26.49
2018-09-22T10:19:40.981Z,26.52
2018-09-22T10:20:41.016Z,26.57
2018-09-22T10:21:41.056Z,26.50
2018-09-22T10:22:41.092Z,26.50
2018-09-22T10:23:41.126Z,26.52
2018-09-22T10:24:41.162Z,26.58
2018-09-22T10:25:41.200Z,26.47
2018-09-22T10:26:41.235Z,26.47
2018-09-22T10:27:41.269Z,26.52
2018-09-22T10:28:41.322Z,26.50
2018-09-22T10:29:41.340Z,26.59
2018-09-22T10:30:41.377Z,26.55
2018-09-22T10:31:41.414Z,26.50
2018-09-22T10:32:41.448Z,26.39
2018-09-22T10:33:41.486Z,26.52
2018-09-22T10:34:41.522Z,26.54
2018-09-22T10:35:41.555Z,26.55
2018-09-22T10:36:41.592Z,26.49
2018-09-22T10:37:41.629Z,26.50
2018-09-22T10:38:41.668Z,26.42
2018-09-22T10:39:41.702Z,26.43
2018-09-22T10:40:41.736Z,26.55
2018-09-22T10:41:41.772Z,26.55
2018-09-22T10:42:41.811Z,26.58
2018-09-22T10:43:41.842Z,26.50
2018-09-22T10:44:41.881Z,26.55
2018-09-22T10:45:41.918Z,26.43
2018-09-22T10:46:41.951Z,26.50
2018-09-22T10:47:41.991Z,26.44
2018-09-22T10:48:42.023Z,26.50
2018-09-22T10:49:42.058Z,26.44
2018-09-22T10:50:42.094Z,26.54
2018-09-22T10:51:42.138Z,26.57
2018-09-22T10:52:42.197Z,26.52
2018-09-22T10:53:42.202Z,26.47
2018-09-22T10:54:42.242Z,26.54
2018-09-22T10:55:42.276Z,26.59
2018-09-22T10:56:42.309Z,26.57
2018-09-22T10:57:42.348Z,26.57
2018-09-22T10:58:42.387Z,26.49
2018-09-22T10:59:42.416Z,26.44
2018-09-22T11:00:42.453Z,26.42
2018-09-22T11:01:42.490Z,26.46
2018-09-22T11:02:42.529Z,26.43
2018-09-22T11:03:42.561Z,26.47
2018-09-22T11:04:42.597Z,26.44
2018-09-22T11:05:42.635Z,26.57
2018-09-22T11:06:42.671Z,26.55
2018-09-22T11:07:42.708Z,26.50
2018-09-22T11:08:42.744Z,26.50
2018-09-22T11:09:42.777Z,26.50
2018-09-22T11:10:42.825Z,26.59
2018-09-22T11:11:42.849Z,26.46
2018-09-22T11:12:42.885Z,26.52
2018-09-22T11:13:42.919Z,26.58
2018-09-22T11:14:42.958Z,26.49
2018-09-22T11:15:42.992Z,26.50
2018-09-22T11:16:43.027Z,26.39
2018-09-22T11:17:43.063Z,26.44
2018-09-22T11:18:43.114Z,26.50
2018-09-22T11:19:43.134Z,26.57
2018-09-22T11:20:43.170Z,26.44
2018-09-22T11:21:43.208Z,26.44
2018-09-22T11:22:43.244Z,26.44
2018-09-22T11:23:43.279Z,26.42
2018-09-22T11:24:43.315Z,26.43
2018-09-22T11:25:43.351Z,26.46
2018-09-22T11:26:43.393Z,26.43
2018-09-22T11:27:43.422Z,26.57
2018-09-22T11:28:43.459Z,26.47
2018-09-22T11:29:43.494Z,26.47
2018-09-22T11:30:43.530Z,26.44
2018-09-22T11:31:43.566Z,26.44
2018-09-22T11:32:43.666Z,26.43
2018-09-22T11:33:43.646Z,26.44
2018-09-22T11:34:43.672Z,26.42
2018-09-22T11:35:43.713Z,26.46
2018-09-22T11:36:43.752Z,26.42
2018-09-22T11:37:43.782Z,26.44
2018-09-22T11:38:44.641Z,26.42
2018-09-22T11:39:43.859Z,26.44
2018-09-22T11:40:43.889Z,26.40
2018-09-22T11:41:43.927Z,26.43
2018-09-22T11:42:43.965Z,26.44
2018-09-22T11:43:43.996Z,26.43
2018-09-22T11:44:44.032Z,26.47
2018-09-22T11:45:44.070Z,26.46
2018-09-22T11:46:44.109Z,26.49
2018-09-22T11:47:44.139Z,26.50
2018-09-22T11:48:44.177Z,26.46
2018-09-22T11:49:44.212Z,26.47
2018-09-22T11:50:44.250Z,26.43
2018-09-22T11:51:44.284Z,26.42
2018-09-22T11:52:44.320Z,26.47
2018-09-22T11:53:44.356Z,26.44
2018-09-22T11:54:44.391Z,26.47
2018-09-22T11:55:44.427Z,26.42
2018-09-22T11:56:44.465Z,26.43
2018-09-22T11:57:44.498Z,26.43
2018-09-22T11:58:44.537Z,26.46
2018-09-22T11:59:44.573Z,26.46
2018-09-22T12:00:44.608Z,26.40
2018-09-22T12:01:44.655Z,26.44
2018-09-22T12:02:44.679Z,26.42
2018-09-22T12:03:44.714Z,26.44
2018-09-22T12:04:44.750Z,26.55
2018-09-22T12:05:44.785Z,26.54
2018-09-22T12:06:44.911Z,26.40
2018-09-22T12:07:44.864Z,26.40
2018-09-22T12:08:44.893Z,26.50
2018-09-22T12:09:44.928Z,26.54
2018-09-22T12:10:44.969Z,26.44
2018-09-22T12:11:45.002Z,26.44
2018-09-22T12:12:45.039Z,26.44
2018-09-22T12:13:45.076Z,26.43
2018-09-22T12:14:45.111Z,26.46
2018-09-22T12:15:45.147Z,26.43
2018-09-22T12:16:45.187Z,26.47
2018-09-22T12:17:45.216Z,26.39
2018-09-22T12:18:45.256Z,26.43
2018-09-22T12:19:45.290Z,26.52
2018-09-22T12:20:45.324Z,26.40
2018-09-22T12:21:45.361Z,26.39
2018-09-22T12:22:45.398Z,26.47
2018-09-22T12:23:45.431Z,26.46
2018-09-22T12:24:45.468Z,26.44
2018-09-22T12:25:45.502Z,26.43
2018-09-22T12:26:45.540Z,26.39
2018-09-22T12:27:45.576Z,26.43
2018-09-22T12:28:45.611Z,26.42
2018-09-22T12:29:45.647Z,26.40
2018-09-22T12:30:45.685Z,26.43
2018-09-22T12:31:45.767Z,26.47
2018-09-22T12:32:45.753Z,26.42
2018-09-22T12:33:45.793Z,26.55
2018-09-22T12:34:45.826Z,26.46
2018-09-22T12:35:45.860Z,26.49
2018-09-22T12:36:45.900Z,26.44
2018-09-22T12:37:45.934Z,26.40
2018-09-22T12:38:45.977Z,26.40
2018-09-22T12:39:46.010Z,26.47
2018-09-22T12:40:46.040Z,26.50
2018-09-22T12:41:46.081Z,26.46
2018-09-22T12:42:46.112Z,26.47
2018-09-22T12:43:46.148Z,26.46
2018-09-22T12:44:46.187Z,26.43
2018-09-22T12:45:46.221Z,26.47
2018-09-22T12:46:46.259Z,26.46
2018-09-22T12:47:46.293Z,26.40
2018-09-22T12:48:46.327Z,26.43
2018-09-22T12:49:46.362Z,26.44
2018-09-22T12:50:46.402Z,26.44
2018-09-22T12:51:46.434Z,26.47
2018-09-22T12:52:46.470Z,26.39
2018-09-22T12:53:46.563Z,26.43
2018-09-22T12:54:46.545Z,26.46
2018-09-22T12:55:46.580Z,26.43
2018-09-22T12:56:46.617Z,26.52
2018-09-22T12:57:46.651Z,26.40
2018-09-22T12:58:46.690Z,26.43
2018-09-22T12:59:46.724Z,26.47
2018-09-22T13:00:46.758Z,26.43
2018-09-22T13:01:46.794Z,26.46
2018-09-22T13:02:46.831Z,26.50
2018-09-22T13:03:46.874Z,26.46
2018-09-22T13:04:46.901Z,26.43
2018-09-22T13:05:46.937Z,26.50
2018-09-22T13:06:46.974Z,26.47
2018-09-22T13:07:47.016Z,26.49
2018-09-22T13:08:47.047Z,26.49
2018-09-22T13:09:47.080Z,26.47
2018-09-22T13:10:47.119Z,26.42
2018-09-22T13:11:47.151Z,26.54
2018-09-22T13:12:47.188Z,26.49
2018-09-22T13:13:47.225Z,26.52
2018-09-22T13:14:47.266Z,26.46
2018-09-22T13:15:47.295Z,26.40
2018-09-22T13:16:47.332Z,26.42